Time,TemperatureF,DewpointF,PressureIn,WindDirection,WindDirectionDegrees,WindSpeedMPH,WindSpeedGustMPH,Humidity,HourlyPrecipIn,Conditions,Clouds,dailyrainin,SolarRadiationWatts/m^2,SoftwareType,DateUTC
2013-04-11 00:14:00,61.5,58.0,29.69,NNE,26,1.0,2.0,87,0.00,,,0.03,0,weatherlink.com 1.10,2013-04-11 04:14:00,
2013-04-11 00:29:00,62.2,58.0,29.69,NNE,26,0.0,2.0,87,0.00,,,0.03,0,weatherlink.com 1.10,2013-04-11 04:29:00,
2013-04-11 00:44:00,62.5,59.0,29.68,NNE,26,1.0,1.0,87,0.00,,,0.03,0,weatherlink.com 1.10,2013-04-11 04:44:00,
2013-04-11 00:59:00,64.0,59.0,29.67,ESE,111,0.0,4.0,83,0.00,,,0.03,0,weatherlink.com 1.10,2013-04-11 04:59:00,
2013-04-11 01:14:00,67.2,58.0,29.67,SSE,155,3.0,9.0,73,0.00,,,0.03,0,weatherlink.com 1.10,2013-04-11 05:14:00,
2013-04-11 01:29:00,71.7,59.0,29.66,SSE,168,6.0,15.0,64,0.00,,,0.03,0,weatherlink.com 1.10,2013-04-11 05:29:00,
2013-04-11 01:44:00,72.2,59.0,29.71,SW,232,8.0,25.0,63,0.00,,,0.03,0,weatherlink.com 1.10,2013-04-11 05:44:00,
2013-04-11 01:59:00,65.9,59.0,29.72,WSW,248,1.0,11.0,77,0.01,,,0.04,0,weatherlink.com 1.10,2013-04-11 05:59:00,
2013-04-11 02:14:00,62.8,58.0,29.73,WNW,282,8.0,11.0,84,0.01,,,0.04,0,weatherlink.com 1.10,2013-04-11 06:14:00,
2013-04-11 02:29:00,61.7,58.0,29.75,West,259,7.0,13.0,87,0.01,,,0.04,0,weatherlink.com 1.10,2013-04-11 06:29:00,
2013-04-11 02:44:00,60.6,57.0,29.76,WNW,286,6.0,18.0,89,0.05,,,0.08,0,weatherlink.com 1.10,2013-04-11 06:44:00,
2013-04-11 02:59:00,59.9,57.0,29.75,WSW,257,1.0,7.0,91,0.12,,,0.16,0,weatherlink.com 1.10,2013-04-11 06:59:00,
2013-04-11 03:21:00,-999.0,-99.9,0.00,North,-999,-999.0,-999.0,-999,0.00,,,0.00,,weatherlink.com 1.10,2013-04-11 07:21:00,
2013-04-11 07:45:00,59.9,58.0,29.64,South,169,2.0,7.0,92,0.00,,,0.30,11,weatherlink.com 1.10,2013-04-11 11:45:00,
2013-04-11 07:53:00,59.7,57.0,29.64,SSE,164,4.0,4.0,92,0.00,,,0.30,14,weatherlink.com 1.10,2013-04-11 11:53:00,
2013-04-11 08:08:00,59.7,58.0,29.64,SSE,158,2.0,7.0,93,0.00,,,0.30,21,weatherlink.com 1.10,2013-04-11 12:08:00,
2013-04-11 08:23:00,59.8,58.0,29.63,SE,136,2.0,5.0,93,0.00,,,0.30,33,weatherlink.com 1.10,2013-04-11 12:23:00,
2013-04-11 08:38:00,60.0,58.0,29.64,SSE,155,2.0,6.0,93,0.00,,,0.30,47,weatherlink.com 1.10,2013-04-11 12:38:00,
2013-04-11 08:53:00,60.5,58.0,29.63,SSE,148,0.0,6.0,92,0.00,,,0.30,63,weatherlink.com 1.10,2013-04-11 12:53:00,
2013-04-11 09:08:00,60.7,58.0,29.63,East,98,2.0,8.0,92,0.00,,,0.30,86,weatherlink.com 1.10,2013-04-11 13:08:00,
2013-04-11 09:23:00,61.3,59.0,29.63,SSE,167,4.0,10.0,91,0.00,,,0.30,77,weatherlink.com 1.10,2013-04-11 13:23:00,
2013-04-11 09:38:00,61.9,59.0,29.63,SSE,159,5.0,10.0,90,0.00,,,0.30,111,weatherlink.com 1.10,2013-04-11 13:38:00,
2013-04-11 09:54:00,62.4,59.0,29.64,SE,146,6.0,10.0,89,0.00,,,0.30,105,weatherlink.com 1.10,2013-04-11 13:54:00,
2013-04-11 10:09:00,62.7,59.0,29.64,ENE,62,5.0,10.0,88,0.00,,,0.30,128,weatherlink.com 1.10,2013-04-11 14:09:00,
2013-04-11 10:24:00,63.2,59.0,29.64,SSW,200,1.0,9.0,87,0.00,,,0.30,88,weatherlink.com 1.10,2013-04-11 14:24:00,
2013-04-11 10:39:00,63.5,59.0,29.64,SSE,166,4.0,9.0,86,0.00,,,0.30,70,weatherlink.com 1.10,2013-04-11 14:39:00,
2013-04-11 10:54:00,63.9,59.0,29.64,SSW,196,2.0,12.0,84,0.00,,,0.30,149,weatherlink.com 1.10,2013-04-11 14:54:00,
2013-04-11 11:09:00,64.5,59.0,29.64,SSE,148,4.0,12.0,82,0.00,,,0.30,81,weatherlink.com 1.10,2013-04-11 15:09:00,
2013-04-11 11:24:00,64.8,59.0,29.64,SSW,197,6.0,11.0,81,0.00,,,0.30,178,weatherlink.com 1.10,2013-04-11 15:24:00,
2013-04-11 11:39:00,65.1,58.0,29.66,SSW,209,9.0,25.0,79,0.00,,,0.30,123,weatherlink.com 1.10,2013-04-11 15:39:00,
2013-04-11 11:54:00,64.9,58.0,29.67,SW,227,7.0,12.0,79,0.00,,,0.30,130,weatherlink.com 1.10,2013-04-11 15:54:00,
2013-04-11 12:09:00,65.0,58.0,29.66,SW,218,6.0,13.0,79,0.00,,,0.30,176,weatherlink.com 1.10,2013-04-11 16:09:00,
2013-04-11 12:24:00,65.2,58.0,29.66,SSW,195,6.0,14.0,78,0.00,,,0.30,130,weatherlink.com 1.10,2013-04-11 16:24:00,
2013-04-11 12:39:00,65.0,58.0,29.66,SW,235,4.0,20.0,79,0.00,,,0.30,197,weatherlink.com 1.10,2013-04-11 16:39:00,
2013-04-11 12:54:00,64.7,58.0,29.64,SW,221,6.0,20.0,79,0.00,,,0.30,149,weatherlink.com 1.10,2013-04-11 16:54:00,
2013-04-11 13:09:00,64.2,58.0,29.64,SW,218,6.0,15.0,80,0.00,,,0.30,104,weatherlink.com 1.10,2013-04-11 17:09:00,
2013-04-11 13:24:00,63.0,58.0,29.64,SSW,211,8.0,20.0,84,0.01,,,0.31,70,weatherlink.com 1.10,2013-04-11 17:24:00,
2013-04-11 13:39:00,62.0,59.0,29.62,SSE,153,5.0,12.0,88,0.03,,,0.33,139,weatherlink.com 1.10,2013-04-11 17:39:00,
2013-04-11 13:54:00,61.7,59.0,29.60,ENE,72,4.0,12.0,90,0.04,,,0.34,114,weatherlink.com 1.10,2013-04-11 17:54:00,
2013-04-11 14:09:00,61.3,58.0,29.60,ESE,118,5.0,16.0,90,0.05,,,0.35,98,weatherlink.com 1.10,2013-04-11 18:09:00,
2013-04-11 14:24:00,61.2,58.0,29.61,South,170,4.0,15.0,90,0.05,,,0.36,90,weatherlink.com 1.10,2013-04-11 18:24:00,
2013-04-11 14:39:00,61.2,59.0,29.62,SSW,209,3.0,16.0,91,0.04,,,0.37,100,weatherlink.com 1.10,2013-04-11 18:39:00,
2013-04-11 14:54:00,61.1,59.0,29.62,SSE,161,6.0,10.0,91,0.04,,,0.38,127,weatherlink.com 1.10,2013-04-11 18:54:00,
2013-04-11 15:09:00,61.0,59.0,29.62,South,188,7.0,7.0,92,0.04,,,0.39,118,weatherlink.com 1.10,2013-04-11 19:09:00,
2013-04-11 15:24:00,60.8,59.0,29.61,SE,144,3.0,8.0,92,0.04,,,0.40,91,weatherlink.com 1.10,2013-04-11 19:24:00,
2013-04-11 15:39:00,60.7,58.0,29.61,SSW,206,2.0,10.0,92,0.05,,,0.42,105,weatherlink.com 1.10,2013-04-11 19:39:00,
2013-04-11 15:54:00,60.7,58.0,29.61,SSE,161,4.0,7.0,92,0.05,,,0.43,60,weatherlink.com 1.10,2013-04-11 19:54:00,
2013-04-11 16:09:00,60.6,59.0,29.61,South,171,3.0,7.0,93,0.06,,,0.45,70,weatherlink.com 1.10,2013-04-11 20:09:00,
2013-04-11 16:24:00,60.6,59.0,29.60,South,188,4.0,7.0,93,0.07,,,0.47,65,weatherlink.com 1.10,2013-04-11 20:24:00,
2013-04-11 16:39:00,60.3,58.0,29.60,South,177,3.0,9.0,93,0.06,,,0.48,54,weatherlink.com 1.10,2013-04-11 20:39:00,
2013-04-11 16:54:00,60.1,58.0,29.60,SSE,167,7.0,8.0,93,0.06,,,0.50,42,weatherlink.com 1.10,2013-04-11 20:54:00,
2013-04-11 17:09:00,59.9,58.0,29.59,SSE,151,0.0,8.0,93,0.07,,,0.52,62,weatherlink.com 1.10,2013-04-11 21:09:00,
2013-04-11 17:24:00,59.5,58.0,29.58,SSW,203,0.0,9.0,93,0.06,,,0.53,44,weatherlink.com 1.10,2013-04-11 21:24:00,
2013-04-11 17:39:00,59.2,57.0,29.55,SSE,151,1.0,7.0,93,0.07,,,0.55,51,weatherlink.com 1.10,2013-04-11 21:39:00,
2013-04-11 18:07:00,58.8,57.0,29.56,SSW,204,3.0,5.0,93,0.04,,,0.56,25,weatherlink.com 1.10,2013-04-11 22:07:00,
2013-04-11 18:12:00,58.9,57.0,29.57,South,178,6.0,7.0,93,0.04,,,0.56,16,weatherlink.com 1.10,2013-04-11 22:12:00,
2013-04-11 18:30:00,58.7,57.0,29.57,SSW,197,2.0,7.0,93,0.03,,,0.57,12,weatherlink.com 1.10,2013-04-11 22:30:00,
2013-04-11 18:46:00,55.8,53.0,29.59,SW,231,9.0,19.0,91,0.03,,,0.59,12,weatherlink.com 1.10,2013-04-11 22:46:00,
2013-04-11 18:58:00,54.4,53.0,29.59,West,269,6.0,11.0,93,0.08,,,0.64,16,weatherlink.com 1.10,2013-04-11 22:58:00,
2013-04-11 19:10:00,54.1,52.0,29.59,WSW,250,4.0,9.0,93,0.12,,,0.68,5,weatherlink.com 1.10,2013-04-11 23:10:00,
2013-04-11 19:25:00,53.9,52.0,29.57,WNW,300,4.0,6.0,94,0.17,,,0.73,11,weatherlink.com 1.10,2013-04-11 23:25:00,
2013-04-11 19:40:00,53.1,51.0,29.56,West,273,4.0,9.0,93,0.20,,,0.77,7,weatherlink.com 1.10,2013-04-11 23:40:00,
2013-04-11 19:55:00,52.6,51.0,29.57,WSW,251,4.0,9.0,94,0.15,,,0.78,0,weatherlink.com 1.10,2013-04-11 23:55:00,
2013-04-11 20:10:00,52.5,51.0,29.56,WSW,239,0.0,5.0,94,0.11,,,0.79,0,weatherlink.com 1.10,2013-04-12 00:10:00,
2013-04-11 20:36:00,52.2,51.0,29.56,SSW,199,1.0,10.0,94,0.04,,,0.80,0,weatherlink.com 1.10,2013-04-12 00:36:00,
2013-04-11 20:57:00,51.7,50.0,29.55,SW,236,0.0,9.0,94,0.02,,,0.80,0,weatherlink.com 1.10,2013-04-12 00:57:00,
2013-04-11 21:25:00,50.7,49.0,29.57,WNW,294,4.0,11.0,93,0.00,,,0.80,0,weatherlink.com 1.10,2013-04-12 01:25:00,
2013-04-11 21:40:00,50.4,49.0,29.57,West,261,2.0,13.0,94,0.01,,,0.81,0,weatherlink.com 1.10,2013-04-12 01:40:00,
2013-04-11 21:55:00,50.1,49.0,29.58,WNW,290,5.0,8.0,94,0.01,,,0.81,0,weatherlink.com 1.10,2013-04-12 01:55:00,
2013-04-11 22:10:00,49.8,48.0,29.59,West,266,6.0,15.0,94,0.01,,,0.81,0,weatherlink.com 1.10,2013-04-12 02:10:00,
2013-04-11 22:33:00,49.5,48.0,29.60,SW,223,4.0,9.0,94,0.01,,,0.82,0,weatherlink.com 1.10,2013-04-12 02:33:00,
2013-04-11 22:47:00,49.2,48.0,29.61,WSW,250,2.0,10.0,94,0.01,,,0.82,0,weatherlink.com 1.10,2013-04-12 02:47:00,
2013-04-11 22:56:00,49.0,47.0,29.61,West,271,6.0,13.0,94,0.01,,,0.82,0,weatherlink.com 1.10,2013-04-12 02:56:00,
2013-04-11 23:11:00,47.6,46.0,29.61,West,275,9.0,18.0,93,0.02,,,0.83,0,weatherlink.com 1.10,2013-04-12 03:11:00,
2013-04-11 23:26:00,46.5,45.0,29.63,NNE,20,4.0,10.0,93,0.02,,,0.83,0,weatherlink.com 1.10,2013-04-12 03:26:00,
2013-04-11 23:41:00,46.0,44.0,29.62,West,263,4.0,8.0,93,0.01,,,0.83,0,weatherlink.com 1.10,2013-04-12 03:41:00,
2013-04-11 23:56:00,45.1,43.0,29.63,WNW,285,4.0,12.0,93,0.01,,,0.83,0,weatherlink.com 1.10,2013-04-12 03:56:00,